sensor_id;sensor_type;location;lat;lon;timestamp;pressure;altitude;pressure_sealevel;temperature;humidity
70011;BME280;59543;37.950;-122.338;2023-04-21T00:01:05;102366.81;;;21.40;32.41
70011;BME280;59543;37.950;-122.338;2023-04-21T00:03:34;102365.66;;;21.27;32.69
70011;BME280;59543;37.950;-122.338;2023-04-21T00:06:04;102363.44;;;20.91;32.77
70011;BME280;59543;37.950;-122.338;2023-04-21T00:08:34;102362.19;;;20.62;32.74
70011;BME280;59543;37.950;-122.338;2023-04-21T00:11:07;102359.84;;;20.43;35.03
70011;BME280;59543;37.950;-122.338;2023-04-21T00:13:34;102363.38;;;20.68;35.98
70011;BME280;59543;37.950;-122.338;2023-04-21T00:16:08;102363.75;;;21.04;36.46
70011;BME280;59543;37.950;-122.338;2023-04-21T00:18:34;102359.59;;;21.08;36.52
70011;BME280;59543;37.950;-122.338;2023-04-21T00:21:01;102364.94;;;20.54;36.21
70011;BME280;59543;37.950;-122.338;2023-04-21T00:23:27;102370.19;;;20.72;37.03
70011;BME280;59543;37.950;-122.338;2023-04-21T00:25:53;102365.19;;;20.84;37.11
70011;BME280;59543;37.950;-122.338;2023-04-21T00:28:20;102360.22;;;20.31;35.21
70011;BME280;59543;37.950;-122.338;2023-04-21T00:30:46;102359.16;;;20.41;36.03
70011;BME280;59543;37.950;-122.338;2023-04-21T00:33:12;102369.13;;;20.01;37.43
70011;BME280;59543;37.950;-122.338;2023-04-21T00:35:38;102367.41;;;20.08;37.56
70011;BME280;59543;37.950;-122.338;2023-04-21T00:38:05;102368.06;;;20.26;35.09
70011;BME280;59543;37.950;-122.338;2023-04-21T00:40:31;102369.28;;;20.07;36.78
70011;BME280;59543;37.950;-122.338;2023-04-21T00:42:57;102361.28;;;19.81;36.52
70011;BME280;59543;37.950;-122.338;2023-04-21T00:45:23;102368.75;;;20.12;36.43
70011;BME280;59543;37.950;-122.338;2023-04-21T00:47:50;102362.97;;;20.07;36.73
70011;BME280;59543;37.950;-122.338;2023-04-21T00:50:16;102371.00;;;20.25;37.14
70011;BME280;59543;37.950;-122.338;2023-04-21T00:52:43;102370.09;;;20.41;35.63
70011;BME280;59543;37.950;-122.338;2023-04-21T00:55:11;102363.94;;;20.47;33.43
70011;BME280;59543;37.950;-122.338;2023-04-21T00:57:38;102365.97;;;20.37;32.67
70011;BME280;59543;37.950;-122.338;2023-04-21T01:00:05;102360.88;;;20.33;32.12
70011;BME280;59543;37.950;-122.338;2023-04-21T01:02:38;102356.75;;;20.46;32.17
70011;BME280;59543;37.950;-122.338;2023-04-21T01:05:05;102361.91;;;20.32;32.53
70011;BME280;59543;37.950;-122.338;2023-04-21T01:07:33;102349.78;;;20.35;33.83
70011;BME280;59543;37.950;-122.338;2023-04-21T01:10:01;102360.22;;;20.31;34.42
70011;BME280;59543;37.950;-122.338;2023-04-21T01:12:28;102351.31;;;20.21;33.13
70011;BME280;59543;37.950;-122.338;2023-04-21T01:14:54;102353.06;;;20.22;33.30
70011;BME280;59543;37.950;-122.338;2023-04-21T01:17:20;102354.59;;;20.17;33.43
70011;BME280;59543;37.950;-122.338;2023-04-21T01:19:47;102359.41;;;19.74;33.17
70011;BME280;59543;37.950;-122.338;2023-04-21T01:22:15;102356.00;;;19.72;34.60
70011;BME280;59543;37.950;-122.338;2023-04-21T01:24:46;102366.16;;;19.61;33.40
70011;BME280;59543;37.950;-122.338;2023-04-21T01:27:16;102362.72;;;19.43;34.10
70011;BME280;59543;37.950;-122.338;2023-04-21T01:29:45;102362.97;;;19.07;34.34
70011;BME280;59543;37.950;-122.338;2023-04-21T01:32:15;102366.75;;;19.06;35.36
70011;BME280;59543;37.950;-122.338;2023-04-21T01:34:42;102360.91;;;19.01;35.03
70011;BME280;59543;37.950;-122.338;2023-04-21T01:37:10;102363.81;;;19.00;34.75
70011;BME280;59543;37.950;-122.338;2023-04-21T01:39:39;102361.66;;;18.77;35.72
70011;BME280;59543;37.950;-122.338;2023-04-21T01:42:06;102358.81;;;18.79;35.07
70011;BME280;59543;37.950;-122.338;2023-04-21T01:44:34;102361.31;;;18.72;36.09
70011;BME280;59543;37.950;-122.338;2023-04-21T01:47:01;102367.09;;;18.43;36.46
70011;BME280;59543;37.950;-122.338;2023-04-21T01:49:27;102361.44;;;18.36;36.76
70011;BME280;59543;37.950;-122.338;2023-04-21T01:51:53;102362.78;;;18.06;37.03
70011;BME280;59543;37.950;-122.338;2023-04-21T01:54:19;102354.25;;;17.83;37.52
70011;BME280;59543;37.950;-122.338;2023-04-21T01:56:46;102356.81;;;17.85;37.52
70011;BME280;59543;37.950;-122.338;2023-04-21T01:59:12;102349.19;;;17.88;37.55
70011;BME280;59543;37.950;-122.338;2023-04-21T02:01:38;102357.66;;;17.67;37.38
70011;BME280;59543;37.950;-122.338;2023-04-21T02:04:04;102356.63;;;17.68;37.54
70011;BME280;59543;37.950;-122.338;2023-04-21T02:06:30;102348.88;;;17.55;38.52
70011;BME280;59543;37.950;-122.338;2023-04-21T02:08:57;102355.94;;;17.30;38.86
70011;BME280;59543;37.950;-122.338;2023-04-21T02:11:24;102364.44;;;17.18;39.50
70011;BME280;59543;37.950;-122.338;2023-04-21T02:13:54;102365.25;;;17.28;39.75
70011;BME280;59543;37.950;-122.338;2023-04-21T02:16:21;102362.44;;;17.20;40.19
70011;BME280;59543;37.950;-122.338;2023-04-21T02:18:55;102357.63;;;16.86;40.61
70011;BME280;59543;37.950;-122.338;2023-04-21T02:21:24;102353.34;;;16.83;40.85
70011;BME280;59543;37.950;-122.338;2023-04-21T02:23:51;102361.81;;;16.80;41.08
70011;BME280;59543;37.950;-122.338;2023-04-21T02:26:17;102364.59;;;16.61;40.78
70011;BME280;59543;37.950;-122.338;2023-04-21T02:28:44;102356.13;;;16.64;41.23
70011;BME280;59543;37.950;-122.338;2023-04-21T02:31:11;102367.06;;;16.44;40.74
70011;BME280;59543;37.950;-122.338;2023-04-21T02:33:37;102356.41;;;16.23;41.12
70011;BME280;59543;37.950;-122.338;2023-04-21T02:36:03;102368.28;;;16.22;41.12
70011;BME280;59543;37.950;-122.338;2023-04-21T02:38:30;102370.69;;;16.26;41.33
70011;BME280;59543;37.950;-122.338;2023-04-21T02:40:56;102377.44;;;16.02;42.11
70011;BME280;59543;37.950;-122.338;2023-04-21T02:43:23;102374.47;;;15.86;41.89
70011;BME280;59543;37.950;-122.338;2023-04-21T02:45:50;102372.19;;;15.81;42.18
70011;BME280;59543;37.950;-122.338;2023-04-21T02:48:16;102378.72;;;15.88;41.91
70011;BME280;59543;37.950;-122.338;2023-04-21T02:50:51;102377.16;;;15.47;42.94
70011;BME280;59543;37.950;-122.338;2023-04-21T02:53:21;102378.84;;;15.28;43.38
70011;BME280;59543;37.950;-122.338;2023-04-21T02:55:47;102381.56;;;15.28;43.54
70011;BME280;59543;37.950;-122.338;2023-04-21T02:58:13;102387.94;;;15.27;43.75
70011;BME280;59543;37.950;-122.338;2023-04-21T03:00:40;102383.81;;;15.23;43.93
70011;BME280;59543;37.950;-122.338;2023-04-21T03:03:07;102400.19;;;15.22;44.37
70011;BME280;59543;37.950;-122.338;2023-04-21T03:05:34;102389.34;;;15.12;45.11
70011;BME280;59543;37.950;-122.338;2023-04-21T03:08:00;102389.03;;;15.05;45.45
70011;BME280;59543;37.950;-122.338;2023-04-21T03:10:26;102387.28;;;14.95;45.70
70011;BME280;59543;37.950;-122.338;2023-04-21T03:12:52;102385.28;;;14.87;46.16
70011;BME280;59543;37.950;-122.338;2023-04-21T03:15:19;102384.72;;;14.93;46.10
70011;BME280;59543;37.950;-122.338;2023-04-21T03:17:45;102393.31;;;14.68;46.78
70011;BME280;59543;37.950;-122.338;2023-04-21T03:20:12;102405.47;;;14.73;46.55
70011;BME280;59543;37.950;-122.338;2023-04-21T03:22:38;102401.31;;;14.69;46.98
70011;BME280;59543;37.950;-122.338;2023-04-21T03:25:05;102405.16;;;14.67;46.92
70011;BME280;59543;37.950;-122.338;2023-04-21T03:27:32;102410.19;;;14.71;46.86
70011;BME280;59543;37.950;-122.338;2023-04-21T03:29:59;102410.25;;;14.60;47.21
70011;BME280;59543;37.950;-122.338;2023-04-21T03:32:25;102412.00;;;14.71;47.10
70011;BME280;59543;37.950;-122.338;2023-04-21T03:34:51;102417.69;;;14.68;47.32
70011;BME280;59543;37.950;-122.338;2023-04-21T03:37:17;102418.19;;;14.52;48.13
70011;BME280;59543;37.950;-122.338;2023-04-21T03:39:44;102413.66;;;14.62;47.69
70011;BME280;59543;37.950;-122.338;2023-04-21T03:42:10;102419.50;;;14.57;47.72
70011;BME280;59543;37.950;-122.338;2023-04-21T03:44:36;102422.25;;;14.67;47.73
70011;BME280;59543;37.950;-122.338;2023-04-21T03:47:02;102421.78;;;14.62;48.20
70011;BME280;59543;37.950;-122.338;2023-04-21T03:49:29;102426.19;;;14.53;48.31
70011;BME280;59543;37.950;-122.338;2023-04-21T03:51:55;102426.31;;;14.52;48.61
70011;BME280;59543;37.950;-122.338;2023-04-21T03:54:21;102422.25;;;14.46;48.53
70011;BME280;59543;37.950;-122.338;2023-04-21T03:56:48;102432.75;;;14.39;49.18
70011;BME280;59543;37.950;-122.338;2023-04-21T03:59:14;102428.50;;;14.47;49.13
70011;BME280;59543;37.950;-122.338;2023-04-21T04:01:40;102435.16;;;14.33;50.61
70011;BME280;59543;37.950;-122.338;2023-04-21T04:04:07;102441.41;;;14.33;50.29
70011;BME280;59543;37.950;-122.338;2023-04-21T04:06:33;102443.25;;;14.33;50.35
70011;BME280;59543;37.950;-122.338;2023-04-21T04:09:00;102445.75;;;14.25;50.33
70011;BME280;59543;37.950;-122.338;2023-04-21T04:11:30;102449.19;;;14.27;50.02
70011;BME280;59543;37.950;-122.338;2023-04-21T04:13:57;102445.22;;;14.31;49.60
70011;BME280;59543;37.950;-122.338;2023-04-21T04:16:23;102443.66;;;14.28;50.20
70011;BME280;59543;37.950;-122.338;2023-04-21T04:18:50;102448.34;;;14.26;50.34
70011;BME280;59543;37.950;-122.338;2023-04-21T04:21:16;102449.06;;;14.28;50.01
70011;BME280;59543;37.950;-122.338;2023-04-21T04:23:42;102451.06;;;14.26;50.36
70011;BME280;59543;37.950;-122.338;2023-04-21T04:26:09;102454.72;;;14.25;50.41
70011;BME280;59543;37.950;-122.338;2023-04-21T04:28:36;102462.97;;;14.03;51.78
70011;BME280;59543;37.950;-122.338;2023-04-21T04:31:02;102460.06;;;13.94;51.81
70011;BME280;59543;37.950;-122.338;2023-04-21T04:33:29;102464.91;;;13.80;52.32
70011;BME280;59543;37.950;-122.338;2023-04-21T04:35:55;102453.28;;;14.00;51.79
70011;BME280;59543;37.950;-122.338;2023-04-21T04:38:23;102458.69;;;14.00;51.70
70011;BME280;59543;37.950;-122.338;2023-04-21T04:40:55;102462.16;;;13.91;51.74
70011;BME280;59543;37.950;-122.338;2023-04-21T04:43:26;102460.75;;;13.76;52.39
70011;BME280;59543;37.950;-122.338;2023-04-21T04:45:52;102462.72;;;13.62;52.66
70011;BME280;59543;37.950;-122.338;2023-04-21T04:48:18;102464.47;;;13.63;52.86
70011;BME280;59543;37.950;-122.338;2023-04-21T04:50:45;102471.94;;;13.60;53.68
70011;BME280;59543;37.950;-122.338;2023-04-21T04:53:11;102470.63;;;13.54;53.03
70011;BME280;59543;37.950;-122.338;2023-04-21T04:55:37;102471.00;;;13.38;53.44
70011;BME280;59543;37.950;-122.338;2023-04-21T04:58:03;102470.91;;;13.06;54.32
70011;BME280;59543;37.950;-122.338;2023-04-21T05:00:30;102472.59;;;12.96;54.85
70011;BME280;59543;37.950;-122.338;2023-04-21T05:02:56;102475.44;;;12.94;55.34
70011;BME280;59543;37.950;-122.338;2023-04-21T05:05:22;102471.34;;;12.66;55.74
70011;BME280;59543;37.950;-122.338;2023-04-21T05:07:49;102472.13;;;12.79;55.40
70011;BME280;59543;37.950;-122.338;2023-04-21T05:10:16;102472.09;;;12.68;55.97
70011;BME280;59543;37.950;-122.338;2023-04-21T05:12:42;102483.75;;;12.69;55.64
70011;BME280;59543;37.950;-122.338;2023-04-21T05:15:09;102478.59;;;12.77;55.33
70011;BME280;59543;37.950;-122.338;2023-04-21T05:17:36;102486.44;;;12.69;55.57
70011;BME280;59543;37.950;-122.338;2023-04-21T05:20:06;102471.59;;;12.52;56.33
70011;BME280;59543;37.950;-122.338;2023-04-21T05:22:36;102481.72;;;12.37;56.90
70011;BME280;59543;37.950;-122.338;2023-04-21T05:25:04;102491.66;;;12.01;58.14
70011;BME280;59543;37.950;-122.338;2023-04-21T05:27:30;102498.22;;;12.21;58.32
70011;BME280;59543;37.950;-122.338;2023-04-21T05:29:57;102495.44;;;12.34;57.50
70011;BME280;59543;37.950;-122.338;2023-04-21T05:32:23;102490.34;;;12.18;58.81
70011;BME280;59543;37.950;-122.338;2023-04-21T05:34:49;102500.47;;;12.39;57.28
70011;BME280;59543;37.950;-122.338;2023-04-21T05:37:16;102495.41;;;12.23;57.78
70011;BME280;59543;37.950;-122.338;2023-04-21T05:39:42;102498.84;;;12.25;57.82
70011;BME280;59543;37.950;-122.338;2023-04-21T05:42:11;102501.31;;;12.28;58.63
70011;BME280;59543;37.950;-122.338;2023-04-21T05:44:38;102496.53;;;12.31;58.62
70011;BME280;59543;37.950;-122.338;2023-04-21T05:47:04;102497.16;;;12.35;58.32
70011;BME280;59543;37.950;-122.338;2023-04-21T05:49:31;102493.94;;;12.19;58.76
70011;BME280;59543;37.950;-122.338;2023-04-21T05:51:57;102489.97;;;12.11;59.13
70011;BME280;59543;37.950;-122.338;2023-04-21T05:54:23;102482.69;;;12.01;59.55
70011;BME280;59543;37.950;-122.338;2023-04-21T05:56:49;102494.56;;;11.98;60.72
70011;BME280;59543;37.950;-122.338;2023-04-21T05:59:16;102480.50;;;12.06;59.66
70011;BME280;59543;37.950;-122.338;2023-04-21T06:01:42;102486.88;;;12.05;60.19
70011;BME280;59543;37.950;-122.338;2023-04-21T06:04:08;102479.44;;;12.20;59.39
70011;BME280;59543;37.950;-122.338;2023-04-21T06:06:35;102481.06;;;12.22;59.27
70011;BME280;59543;37.950;-122.338;2023-04-21T06:09:01;102482.66;;;12.25;59.18
70011;BME280;59543;37.950;-122.338;2023-04-21T06:11:27;102478.22;;;12.24;59.38
70011;BME280;59543;37.950;-122.338;2023-04-21T06:13:54;102477.47;;;12.10;60.11
70011;BME280;59543;37.950;-122.338;2023-04-21T06:16:23;102477.09;;;12.15;60.00
70011;BME280;59543;37.950;-122.338;2023-04-21T06:18:49;102472.81;;;12.12;59.88
70011;BME280;59543;37.950;-122.338;2023-04-21T06:21:15;102480.78;;;11.90;60.84
70011;BME280;59543;37.950;-122.338;2023-04-21T06:23:44;102474.41;;;11.91;60.92
70011;BME280;59543;37.950;-122.338;2023-04-21T06:26:10;102473.91;;;11.86;61.05
70011;BME280;59543;37.950;-122.338;2023-04-21T06:28:36;102473.38;;;12.05;60.53
70011;BME280;59543;37.950;-122.338;2023-04-21T06:31:04;102465.84;;;11.97;60.77
70011;BME280;59543;37.950;-122.338;2023-04-21T06:33:30;102466.56;;;11.88;60.91
70011;BME280;59543;37.950;-122.338;2023-04-21T06:35:56;102467.44;;;11.88;61.03
70011;BME280;59543;37.950;-122.338;2023-04-21T06:38:22;102464.09;;;11.85;61.60
70011;BME280;59543;37.950;-122.338;2023-04-21T06:40:49;102467.22;;;11.79;62.08
70011;BME280;59543;37.950;-122.338;2023-04-21T06:43:16;102461.91;;;11.90;61.73
70011;BME280;59543;37.950;-122.338;2023-04-21T06:45:42;102467.13;;;11.80;62.56
70011;BME280;59543;37.950;-122.338;2023-04-21T06:48:08;102466.13;;;11.81;62.24
70011;BME280;59543;37.950;-122.338;2023-04-21T06:50:35;102460.75;;;11.81;62.73
70011;BME280;59543;37.950;-122.338;2023-04-21T06:53:01;102459.44;;;11.87;62.26
70011;BME280;59543;37.950;-122.338;2023-04-21T06:55:27;102459.63;;;11.97;61.83
70011;BME280;59543;37.950;-122.338;2023-04-21T06:57:53;102472.06;;;12.10;61.13
70011;BME280;59543;37.950;-122.338;2023-04-21T07:00:19;102464.63;;;12.25;60.44
70011;BME280;59543;37.950;-122.338;2023-04-21T07:02:47;102466.13;;;12.29;60.50
70011;BME280;59543;37.950;-122.338;2023-04-21T07:05:13;102465.06;;;12.43;60.15
70011;BME280;59543;37.950;-122.338;2023-04-21T07:07:39;102460.38;;;12.34;60.49
70011;BME280;59543;37.950;-122.338;2023-04-21T07:10:06;102450.94;;;12.40;60.35
70011;BME280;59543;37.950;-122.338;2023-04-21T07:12:32;102453.31;;;12.55;59.62
70011;BME280;59543;37.950;-122.338;2023-04-21T07:14:58;102447.03;;;12.55;59.94
70011;BME280;59543;37.950;-122.338;2023-04-21T07:17:25;102445.69;;;12.49;59.67
70011;BME280;59543;37.950;-122.338;2023-04-21T07:19:51;102447.28;;;12.52;59.90
70011;BME280;59543;37.950;-122.338;2023-04-21T07:22:18;102443.69;;;12.51;59.85
70011;BME280;59543;37.950;-122.338;2023-04-21T07:24:44;102443.59;;;12.53;59.22
70011;BME280;59543;37.950;-122.338;2023-04-21T07:27:10;102447.16;;;12.53;59.04
70011;BME280;59543;37.950;-122.338;2023-04-21T07:29:36;102445.97;;;12.57;58.83
70011;BME280;59543;37.950;-122.338;2023-04-21T07:32:03;102448.16;;;12.52;59.20
70011;BME280;59543;37.950;-122.338;2023-04-21T07:34:29;102445.06;;;12.46;58.81
70011;BME280;59543;37.950;-122.338;2023-04-21T07:36:55;102445.94;;;12.46;59.17
70011;BME280;59543;37.950;-122.338;2023-04-21T07:39:21;102444.09;;;12.47;58.94
70011;BME280;59543;37.950;-122.338;2023-04-21T07:41:47;102448.50;;;12.37;59.69
70011;BME280;59543;37.950;-122.338;2023-04-21T07:44:14;102452.28;;;12.34;59.63
70011;BME280;59543;37.950;-122.338;2023-04-21T07:46:40;102453.22;;;12.33;59.70
70011;BME280;59543;37.950;-122.338;2023-04-21T07:49:06;102456.66;;;12.24;60.18
70011;BME280;59543;37.950;-122.338;2023-04-21T07:51:32;102454.13;;;12.33;60.56
70011;BME280;59543;37.950;-122.338;2023-04-21T07:53:59;102454.00;;;12.35;60.67
70011;BME280;59543;37.950;-122.338;2023-04-21T07:56:25;102452.75;;;12.39;60.62
70011;BME280;59543;37.950;-122.338;2023-04-21T07:58:51;102448.59;;;12.35;60.81
70011;BME280;59543;37.950;-122.338;2023-04-21T08:01:17;102452.00;;;12.26;61.50
70011;BME280;59543;37.950;-122.338;2023-04-21T08:03:45;102458.97;;;12.17;62.03
70011;BME280;59543;37.950;-122.338;2023-04-21T08:06:11;102450.47;;;12.10;61.97
70011;BME280;59543;37.950;-122.338;2023-04-21T08:08:37;102453.94;;;12.12;61.65
70011;BME280;59543;37.950;-122.338;2023-04-21T08:11:03;102444.72;;;12.04;62.36
70011;BME280;59543;37.950;-122.338;2023-04-21T08:13:30;102445.03;;;11.99;63.09
70011;BME280;59543;37.950;-122.338;2023-04-21T08:15:57;102444.94;;;12.01;62.71
70011;BME280;59543;37.950;-122.338;2023-04-21T08:18:23;102435.47;;;11.95;63.29
70011;BME280;59543;37.950;-122.338;2023-04-21T08:20:49;102430.78;;;11.86;63.92
70011;BME280;59543;37.950;-122.338;2023-04-21T08:23:17;102429.13;;;11.83;63.44
70011;BME280;59543;37.950;-122.338;2023-04-21T08:25:44;102427.94;;;11.87;63.20
70011;BME280;59543;37.950;-122.338;2023-04-21T08:28:10;102425.38;;;11.86;63.28
70011;BME280;59543;37.950;-122.338;2023-04-21T08:30:36;102435.19;;;11.87;63.51
70011;BME280;59543;37.950;-122.338;2023-04-21T08:33:02;102431.44;;;11.77;63.69
70011;BME280;59543;37.950;-122.338;2023-04-21T08:35:29;102418.13;;;11.62;64.17
70011;BME280;59543;37.950;-122.338;2023-04-21T08:37:55;102422.22;;;11.68;63.46
70011;BME280;59543;37.950;-122.338;2023-04-21T08:40:27;102430.22;;;11.57;63.51
70011;BME280;59543;37.950;-122.338;2023-04-21T08:42:57;102421.06;;;11.59;62.91
70011;BME280;59543;37.950;-122.338;2023-04-21T08:45:24;102426.53;;;11.58;62.33
70011;BME280;59543;37.950;-122.338;2023-04-21T08:47:51;102426.06;;;11.53;61.92
70011;BME280;59543;37.950;-122.338;2023-04-21T08:50:18;102418.47;;;11.58;62.16
70011;BME280;59543;37.950;-122.338;2023-04-21T08:52:45;102419.13;;;11.61;61.64
70011;BME280;59543;37.950;-122.338;2023-04-21T08:55:12;102422.53;;;11.63;61.48
70011;BME280;59543;37.950;-122.338;2023-04-21T08:57:38;102418.44;;;11.71;60.42
70011;BME280;59543;37.950;-122.338;2023-04-21T09:00:05;102416.50;;;11.84;60.21
70011;BME280;59543;37.950;-122.338;2023-04-21T09:02:32;102414.47;;;11.87;60.03
70011;BME280;59543;37.950;-122.338;2023-04-21T09:04:59;102418.34;;;11.83;60.49
70011;BME280;59543;37.950;-122.338;2023-04-21T09:07:32;102405.63;;;11.61;61.75
70011;BME280;59543;37.950;-122.338;2023-04-21T09:09:58;102404.25;;;11.56;62.49
70011;BME280;59543;37.950;-122.338;2023-04-21T09:12:26;102411.66;;;11.41;63.01
70011;BME280;59543;37.950;-122.338;2023-04-21T09:14:52;102412.38;;;11.43;62.50
70011;BME280;59543;37.950;-122.338;2023-04-21T09:17:21;102423.28;;;11.41;62.65
70011;BME280;59543;37.950;-122.338;2023-04-21T09:19:49;102413.59;;;11.39;62.76
70011;BME280;59543;37.950;-122.338;2023-04-21T09:22:17;102416.72;;;11.33;62.67
70011;BME280;59543;37.950;-122.338;2023-04-21T09:24:47;102422.13;;;11.33;62.40
70011;BME280;59543;37.950;-122.338;2023-04-21T09:27:15;102416.78;;;11.20;63.91
70011;BME280;59543;37.950;-122.338;2023-04-21T09:29:46;102415.63;;;11.11;64.91
70011;BME280;59543;37.950;-122.338;2023-04-21T09:32:18;102421.53;;;11.16;64.05
70011;BME280;59543;37.950;-122.338;2023-04-21T09:34:45;102424.69;;;11.10;64.32
70011;BME280;59543;37.950;-122.338;2023-04-21T09:37:12;102422.66;;;11.01;65.11
70011;BME280;59543;37.950;-122.338;2023-04-21T09:39:43;102419.75;;;11.04;64.64
70011;BME280;59543;37.950;-122.338;2023-04-21T09:42:10;102417.91;;;10.92;65.71
70011;BME280;59543;37.950;-122.338;2023-04-21T09:44:36;102417.28;;;11.01;65.04
70011;BME280;59543;37.950;-122.338;2023-04-21T09:47:03;102426.09;;;10.90;65.36
70011;BME280;59543;37.950;-122.338;2023-04-21T09:49:34;102425.03;;;10.93;65.31
70011;BME280;59543;37.950;-122.338;2023-04-21T09:52:02;102426.34;;;10.74;66.80
70011;BME280;59543;37.950;-122.338;2023-04-21T09:54:30;102422.88;;;10.85;65.98
70011;BME280;59543;37.950;-122.338;2023-04-21T09:57:01;102426.03;;;10.66;67.06
70011;BME280;59543;37.950;-122.338;2023-04-21T09:59:35;102424.72;;;10.72;67.29
70011;BME280;59543;37.950;-122.338;2023-04-21T10:02:06;102424.59;;;10.73;66.86
70011;BME280;59543;37.950;-122.338;2023-04-21T10:04:33;102416.53;;;10.73;67.43
70011;BME280;59543;37.950;-122.338;2023-04-21T10:07:01;102421.28;;;10.70;67.21
70011;BME280;59543;37.950;-122.338;2023-04-21T10:09:34;102419.22;;;10.73;67.31
70011;BME280;59543;37.950;-122.338;2023-04-21T10:12:02;102412.78;;;10.63;67.87
70011;BME280;59543;37.950;-122.338;2023-04-21T10:14:29;102411.38;;;10.70;67.71
70011;BME280;59543;37.950;-122.338;2023-04-21T10:16:56;102407.81;;;10.70;67.83
70011;BME280;59543;37.950;-122.338;2023-04-21T10:19:23;102414.06;;;10.70;67.76
70011;BME280;59543;37.950;-122.338;2023-04-21T10:21:50;102417.94;;;10.79;67.35
70011;BME280;59543;37.950;-122.338;2023-04-21T10:24:16;102407.03;;;10.93;66.76
70011;BME280;59543;37.950;-122.338;2023-04-21T10:26:43;102417.59;;;10.96;66.21
70011;BME280;59543;37.950;-122.338;2023-04-21T10:29:09;102403.94;;;10.87;66.84
70011;BME280;59543;37.950;-122.338;2023-04-21T10:31:51;102417.19;;;10.90;66.10
70011;BME280;59543;37.950;-122.338;2023-04-21T10:34:36;102414.28;;;10.80;67.05
70011;BME280;59543;37.950;-122.338;2023-04-21T10:39:50;102405.56;;;10.89;65.80
70011;BME280;59543;37.950;-122.338;2023-04-21T10:42:18;102406.50;;;11.01;64.78
70011;BME280;59543;37.950;-122.338;2023-04-21T10:49:57;102405.00;;;10.84;66.14
70011;BME280;59543;37.950;-122.338;2023-04-21T10:52:32;102408.69;;;10.70;67.12
70011;BME280;59543;37.950;-122.338;2023-04-21T10:57:25;102401.19;;;10.50;67.60
70011;BME280;59543;37.950;-122.338;2023-04-21T10:59:51;102410.84;;;10.52;67.82
70011;BME280;59543;37.950;-122.338;2023-04-21T11:02:18;102406.34;;;10.53;67.23
70011;BME280;59543;37.950;-122.338;2023-04-21T11:04:48;102404.38;;;10.68;67.32
70011;BME280;59543;37.950;-122.338;2023-04-21T11:07:17;102406.63;;;10.61;67.74
70011;BME280;59543;37.950;-122.338;2023-04-21T11:09:45;102403.44;;;10.56;67.76
70011;BME280;59543;37.950;-122.338;2023-04-21T11:12:13;102400.75;;;10.56;68.83
70011;BME280;59543;37.950;-122.338;2023-04-21T11:14:42;102390.50;;;10.74;68.15
70011;BME280;59543;37.950;-122.338;2023-04-21T11:17:13;102394.16;;;10.73;68.75
70011;BME280;59543;37.950;-122.338;2023-04-21T11:19:39;102399.88;;;10.68;69.39
70011;BME280;59543;37.950;-122.338;2023-04-21T11:22:05;102401.38;;;10.72;69.28
70011;BME280;59543;37.950;-122.338;2023-04-21T11:24:32;102401.34;;;10.85;68.89
70011;BME280;59543;37.950;-122.338;2023-04-21T11:26:59;102409.03;;;10.66;69.73
70011;BME280;59543;37.950;-122.338;2023-04-21T11:29:27;102410.94;;;10.64;69.57
70011;BME280;59543;37.950;-122.338;2023-04-21T11:31:56;102410.75;;;10.54;69.70
70011;BME280;59543;37.950;-122.338;2023-04-21T11:34:25;102410.09;;;10.50;69.40
70011;BME280;59543;37.950;-122.338;2023-04-21T11:36:52;102396.84;;;10.35;70.57
70011;BME280;59543;37.950;-122.338;2023-04-21T11:39:19;102401.13;;;10.24;72.29
70011;BME280;59543;37.950;-122.338;2023-04-21T11:41:47;102400.09;;;10.27;71.75
70011;BME280;59543;37.950;-122.338;2023-04-21T11:44:33;102398.94;;;10.17;72.37
70011;BME280;59543;37.950;-122.338;2023-04-21T11:47:10;102400.78;;;10.16;72.45
70011;BME280;59543;37.950;-122.338;2023-04-21T11:49:43;102400.75;;;9.91;73.26
70011;BME280;59543;37.950;-122.338;2023-04-21T11:52:10;102404.00;;;10.08;73.11
70011;BME280;59543;37.950;-122.338;2023-04-21T11:54:38;102393.25;;;10.08;72.69
70011;BME280;59543;37.950;-122.338;2023-04-21T11:57:04;102397.34;;;10.14;72.09
70011;BME280;59543;37.950;-122.338;2023-04-21T11:59:31;102392.16;;;9.98;72.94
70011;BME280;59543;37.950;-122.338;2023-04-21T12:01:57;102389.25;;;10.01;72.79
70011;BME280;59543;37.950;-122.338;2023-04-21T12:04:24;102389.34;;;9.87;73.94
70011;BME280;59543;37.950;-122.338;2023-04-21T12:07:01;102385.34;;;9.93;73.26
70011;BME280;59543;37.950;-122.338;2023-04-21T12:09:28;102388.81;;;9.95;73.46
70011;BME280;59543;37.950;-122.338;2023-04-21T12:11:56;102389.13;;;9.90;72.89
70011;BME280;59543;37.950;-122.338;2023-04-21T12:14:24;102381.38;;;9.85;73.62
70011;BME280;59543;37.950;-122.338;2023-04-21T12:16:55;102372.84;;;9.66;74.43
70011;BME280;59543;37.950;-122.338;2023-04-21T12:19:23;102378.91;;;9.82;73.58
70011;BME280;59543;37.950;-122.338;2023-04-21T12:21:54;102369.22;;;9.80;74.02
70011;BME280;59543;37.950;-122.338;2023-04-21T12:24:21;102367.84;;;9.87;72.73
70011;BME280;59543;37.950;-122.338;2023-04-21T12:26:47;102379.53;;;9.86;73.46
70011;BME280;59543;37.950;-122.338;2023-04-21T12:29:13;102373.97;;;9.89;72.77
70011;BME280;59543;37.950;-122.338;2023-04-21T12:31:39;102383.84;;;9.89;73.45